Time;durP1;ratioP1;P1;durP2;ratioP2;P2;SDS_P1;SDS_P2;PMS_P1;PMS_P2;Temp;Humidity;BMP_temperature;BMP_pressure;BME280_temperature;BME280_humidity;BME280_pressure;Samples;Min_cycle;Max_cycle;Signal;HPM_P1;HPM_P2
2023/04/25 00:01:21;;;;;;;6.53;2.70;;;;;;;7.26;100.00;95583.94;5059225;28;20076;-89
2023/04/25 00:03:47;;;;;;;8.67;3.17;;;;;;;7.32;100.00;95585.94;5046342;28;20030;-89
2023/04/25 00:06:14;;;;;;;5.70;2.90;;;;;;;7.32;100.00;95579.91;5064520;28;20395;-89
2023/04/25 00:08:40;;;;;;;5.30;3.00;;;;;;;7.42;100.00;95578.00;5076182;28;20073;-89
2023/04/25 00:11:06;;;;;;;6.50;2.70;;;;;;;7.27;100.00;95575.13;5058484;28;20169;-89
2023/04/25 00:13:32;;;;;;;5.37;2.83;;;;;;;7.29;100.00;95574.97;5042074;28;20030;-89
2023/04/25 00:15:57;;;;;;;5.53;3.17;;;;;;;7.12;100.00;95574.06;5063152;28;20394;-89
2023/04/25 00:18:24;;;;;;;5.20;2.77;;;;;;;7.02;100.00;95575.97;5060204;28;20029;-89
2023/04/25 00:20:50;;;;;;;5.03;2.70;;;;;;;7.00;100.00;95580.50;5043552;28;20033;-89
2023/04/25 00:23:18;;;;;;;7.60;2.43;;;;;;;7.08;100.00;95581.41;5041894;28;20052;-89
2023/04/25 00:25:48;;;;;;;5.80;2.60;;;;;;;7.11;100.00;95571.59;5044843;28;20168;-89
2023/04/25 00:28:14;;;;;;;4.87;2.67;;;;;;;7.15;100.00;95576.38;5028010;28;20026;-89
2023/04/25 00:30:41;;;;;;;5.40;2.83;;;;;;;7.21;100.00;95575.75;5062858;28;20080;-89
2023/04/25 00:33:07;;;;;;;4.73;2.93;;;;;;;7.19;100.00;95577.69;5075853;28;20033;-89
2023/04/25 00:35:33;;;;;;;5.27;2.70;;;;;;;7.19;100.00;95579.50;5071409;28;20041;-90
2023/04/25 00:37:58;;;;;;;6.27;3.20;;;;;;;7.26;100.00;95578.72;5044263;28;20041;-89
2023/04/25 00:40:24;;;;;;;5.73;2.90;;;;;;;7.30;100.00;95574.00;5066432;28;20036;-89
2023/04/25 00:42:57;;;;;;;7.57;2.67;;;;;;;7.36;100.00;95577.81;5044371;28;20033;-89
2023/04/25 00:45:28;;;;;;;5.35;3.25;;;;;;;7.23;100.00;95573.78;5058254;28;20649;-90
2023/04/25 00:47:54;;;;;;;5.07;2.97;;;;;;;7.25;100.00;95574.47;5057388;28;20049;-89
2023/04/25 00:50:20;;;;;;;5.03;3.00;;;;;;;7.26;100.00;95570.88;5057929;28;20052;-89
2023/04/25 00:52:45;;;;;;;5.50;2.63;;;;;;;7.23;100.00;95570.38;5052095;28;20079;-89
2023/04/25 00:55:24;;;;;;;5.73;2.63;;;;;;;7.22;100.00;95569.56;5047228;28;20029;-89
2023/04/25 00:57:49;;;;;;;5.27;2.70;;;;;;;7.20;100.00;95560.22;5042628;28;20041;-87
2023/04/25 01:00:16;;;;;;;6.00;2.87;;;;;;;7.20;100.00;95563.66;5049821;28;21014;-90
2023/04/25 01:02:44;;;;;;;5.07;2.57;;;;;;;7.20;100.00;95563.66;5070582;28;20044;-89
2023/04/25 01:05:11;;;;;;;5.00;2.90;;;;;;;7.08;100.00;95557.88;5030927;28;20083;-89
2023/04/25 01:07:37;;;;;;;5.17;2.43;;;;;;;7.13;100.00;95561.81;5061466;28;20033;-89
2023/04/25 01:10:05;;;;;;;6.60;2.93;;;;;;;7.17;100.00;95563.94;5044727;28;20100;-90
2023/04/25 01:12:32;;;;;;;3.80;2.30;;;;;;;7.29;100.00;95564.53;5055057;28;20092;-89
2023/04/25 01:14:57;;;;;;;5.40;2.80;;;;;;;7.22;100.00;95560.88;5077782;28;20041;-89
2023/04/25 01:17:23;;;;;;;5.80;2.50;;;;;;;7.31;100.00;95555.56;5043086;28;20029;-89
2023/04/25 01:19:50;;;;;;;4.77;2.77;;;;;;;7.28;100.00;95549.81;5050788;28;20082;-89
2023/04/25 01:22:16;;;;;;;6.07;3.13;;;;;;;7.30;100.00;95543.44;5061372;28;20028;-89
2023/04/25 01:24:42;;;;;;;7.83;2.50;;;;;;;7.21;100.00;95539.16;5043616;28;20025;-90
2023/04/25 01:27:09;;;;;;;5.03;2.43;;;;;;;7.05;100.00;95539.06;5059362;28;20360;-89
2023/04/25 01:29:36;;;;;;;4.40;2.57;;;;;;;6.95;100.00;95535.72;5062434;28;20032;-89
2023/04/25 01:32:03;;;;;;;5.33;2.90;;;;;;;7.19;100.00;95533.25;5048844;28;20046;-89
2023/04/25 01:34:29;;;;;;;4.97;2.93;;;;;;;6.97;100.00;95531.97;5051650;28;20486;-88
2023/04/25 01:37:00;;;;;;;5.53;2.83;;;;;;;6.82;100.00;95526.50;5048448;28;20082;-90
2023/04/25 01:39:27;;;;;;;5.63;3.33;;;;;;;6.87;100.00;95530.44;5053148;28;20632;-89
2023/04/25 01:41:53;;;;;;;7.10;2.87;;;;;;;6.93;100.00;95532.44;5062581;28;20064;-89
2023/04/25 01:44:21;;;;;;;4.67;2.60;;;;;;;6.84;100.00;95535.00;5045016;28;20052;-89
2023/04/25 01:46:47;;;;;;;5.47;2.60;;;;;;;6.78;100.00;95537.41;5056373;28;20041;-89
2023/04/25 01:49:13;;;;;;;6.07;2.57;;;;;;;6.81;100.00;95534.50;5062455;28;20504;-89
2023/04/25 01:51:46;;;;;;;6.23;2.77;;;;;;;6.75;100.00;95530.69;5054280;28;20393;-89
2023/04/25 01:54:12;;;;;;;6.17;2.50;;;;;;;6.68;100.00;95540.13;5046341;28;20101;-89
2023/04/25 01:56:39;;;;;;;3.97;2.43;;;;;;;6.68;100.00;95540.13;5044099;28;20419;-90
2023/04/25 01:59:10;;;;;;;5.57;2.70;;;;;;;6.63;100.00;95536.31;5062541;28;20024;-89
2023/04/25 02:01:52;;;;;;;4.53;2.40;;;;;;;6.56;100.00;95541.31;5046749;28;20562;-89
2023/04/25 02:04:26;;;;;;;4.07;2.10;;;;;;;6.53;100.00;95539.00;5066289;28;20068;-89
2023/04/25 02:06:52;;;;;;;5.00;2.20;;;;;;;6.65;100.00;95537.81;5062163;28;20510;-89
2023/04/25 02:09:17;;;;;;;8.47;2.30;;;;;;;6.65;100.00;95537.00;5048336;28;20044;-90
2023/04/25 02:11:52;;;;;;;5.37;2.47;;;;;;;6.60;100.00;95534.81;5058326;28;20456;-90
2023/04/25 02:14:33;;;;;;;5.13;2.80;;;;;;;6.72;100.00;95538.03;5045723;28;20025;-89
2023/04/25 02:17:12;;;;;;;;;;;;;;;6.70;100.00;95532.94;5061110;28;20028;-90
2023/04/25 02:19:38;;;;;;;4.23;2.13;;;;;;;6.67;100.00;95540.25;5051600;28;20349;-89
2023/04/25 02:22:03;;;;;;;4.87;2.00;;;;;;;6.59;100.00;95535.78;5061997;28;20024;-89
2023/04/25 02:24:31;;;;;;;3.87;2.33;;;;;;;6.64;100.00;95536.19;5048028;28;20133;-89
2023/04/25 02:26:57;;;;;;;6.57;2.50;;;;;;;6.78;100.00;95532.19;5047634;28;20043;-90
2023/04/25 02:29:23;;;;;;;4.67;2.30;;;;;;;6.68;100.00;95532.28;5065723;28;20486;-89
2023/04/25 02:31:48;;;;;;;5.57;2.93;;;;;;;6.67;100.00;95529.81;5044283;28;20032;-89
2023/04/25 02:34:14;;;;;;;5.50;2.30;;;;;;;6.66;100.00;95531.59;5047606;28;20032;-89
2023/04/25 02:36:40;;;;;;;4.37;2.40;;;;;;;6.79;100.00;95532.03;5081616;28;20028;-89
2023/04/25 02:39:05;;;;;;;4.77;2.40;;;;;;;6.94;100.00;95527.06;5059650;28;20032;-89
2023/04/25 02:41:31;;;;;;;5.07;2.57;;;;;;;6.98;100.00;95522.34;5059397;28;20389;-90
2023/04/25 02:43:56;;;;;;;5.07;2.50;;;;;;;6.98;100.00;95517.13;5062775;28;20029;-89
2023/04/25 02:46:22;;;;;;;5.57;2.40;;;;;;;7.04;100.00;95522.56;5047062;28;20036;-88
2023/04/25 02:48:48;;;;;;;5.53;2.40;;;;;;;7.08;100.00;95523.06;5043455;28;20064;-89
2023/04/25 02:51:16;;;;;;;4.13;2.40;;;;;;;7.14;100.00;95513.75;5061393;28;20131;-90
2023/04/25 02:53:42;;;;;;;4.23;2.57;;;;;;;7.07;100.00;95516.19;5060531;28;20033;-89
2023/04/25 02:56:13;;;;;;;4.90;2.77;;;;;;;7.09;100.00;95509.81;5043238;28;20120;-90
2023/04/25 02:58:39;;;;;;;6.27;2.40;;;;;;;7.12;100.00;95508.69;5058694;28;20037;-90
2023/04/25 03:01:13;;;;;;;4.83;2.57;;;;;;;7.09;100.00;95520.28;5056068;28;20124;-90
2023/04/25 03:03:39;;;;;;;4.47;2.40;;;;;;;7.07;100.00;95510.94;5060958;28;20032;-89
2023/04/25 03:06:05;;;;;;;5.20;2.70;;;;;;;7.02;100.00;95513.22;5043040;28;20040;-90
2023/04/25 03:08:34;;;;;;;5.17;2.57;;;;;;;7.05;100.00;95507.69;5053218;28;20039;-90
2023/04/25 03:11:00;;;;;;;4.40;2.40;;;;;;;7.11;100.00;95509.69;5043468;28;20029;-89
2023/04/25 03:13:27;;;;;;;6.80;2.83;;;;;;;6.95;100.00;95504.38;5041015;28;20017;-89
2023/04/25 03:15:53;;;;;;;6.37;2.70;;;;;;;7.07;100.00;95506.53;5045407;28;20025;-90
2023/04/25 03:18:19;;;;;;;5.43;3.00;;;;;;;6.99;100.00;95513.53;5056430;28;20036;-89
2023/04/25 03:20:44;;;;;;;4.23;2.53;;;;;;;6.97;100.00;95508.44;5042595;28;20039;-89
2023/04/25 03:23:12;;;;;;;5.87;2.97;;;;;;;7.01;100.00;95508.97;5058371;28;20073;-89
2023/04/25 03:25:41;;;;;;;6.97;2.93;;;;;;;6.94;100.00;95505.31;5049670;28;20034;-90
2023/04/25 03:28:06;;;;;;;7.43;3.40;;;;;;;6.83;100.00;95504.59;5042329;28;20029;-89
2023/04/25 03:30:33;;;;;;;5.93;3.57;;;;;;;6.74;100.00;95508.16;5041407;28;20482;-89
2023/04/25 03:32:59;;;;;;;5.80;3.00;;;;;;;6.83;100.00;95502.00;5041723;28;20033;-89
2023/04/25 03:35:25;;;;;;;8.07;3.17;;;;;;;6.80;100.00;95506.72;5062212;28;20033;-90
2023/04/25 03:37:51;;;;;;;6.67;3.23;;;;;;;6.83;100.00;95503.78;5058632;28;20055;-89
2023/04/25 03:40:23;;;;;;;7.93;3.80;;;;;;;6.84;100.00;95501.03;5036529;28;20035;-89
2023/04/25 03:43:11;;;;;;;5.85;3.55;;;;;;;6.75;100.00;95507.19;5054774;28;20039;-89
2023/04/25 03:45:39;;;;;;;6.80;3.30;;;;;;;6.75;100.00;95515.00;5075508;28;20036;-89
2023/04/25 03:48:05;;;;;;;7.10;3.50;;;;;;;6.78;100.00;95506.88;5072318;28;20109;-90
2023/04/25 03:50:31;;;;;;;5.40;3.17;;;;;;;6.74;100.00;95516.00;5057192;28;20089;-90
2023/04/25 03:52:57;;;;;;;6.67;3.80;;;;;;;6.68;100.00;95510.56;5064706;28;20130;-90
2023/04/25 03:55:25;;;;;;;8.87;3.43;;;;;;;6.71;100.00;95511.06;5066660;28;20127;-90
2023/04/25 03:57:54;;;;;;;6.20;3.50;;;;;;;6.80;100.00;95519.78;5044076;28;20124;-89
2023/04/25 04:00:21;;;;;;;7.33;3.67;;;;;;;6.80;100.00;95509.31;5046211;28;20128;-89
2023/04/25 04:02:52;;;;;;;7.97;4.27;;;;;;;6.75;100.00;95517.63;5051989;28;20029;-90
2023/04/25 04:05:17;;;;;;;6.30;3.60;;;;;;;6.73;100.00;95516.94;5026231;28;20123;-90
2023/04/25 04:07:53;;;;;;;10.67;3.40;;;;;;;6.87;100.00;95514.75;5019125;28;20748;-89
2023/04/25 04:10:19;;;;;;;6.57;3.77;;;;;;;6.85;100.00;95514.91;5024342;28;20103;-89
2023/04/25 04:12:45;;;;;;;6.87;3.57;;;;;;;6.87;100.00;95519.97;5026320;28;20043;-89
2023/04/25 04:15:13;;;;;;;8.93;3.63;;;;;;;6.92;100.00;95522.97;5021992;28;20028;-89
2023/04/25 04:17:40;;;;;;;6.03;3.73;;;;;;;6.90;100.00;95514.44;5028990;28;20016;-89
2023/04/25 04:20:08;;;;;;;6.37;3.80;;;;;;;6.88;100.00;95511.19;5027630;28;21145;-89
2023/04/25 04:22:50;;;;;;;6.90;4.60;;;;;;;6.92;100.00;95515.13;5027774;28;20021;-89
2023/04/25 04:25:18;;;;;;;6.40;4.30;;;;;;;7.05;100.00;95512.91;5026550;28;20051;-90
2023/04/25 04:28:03;;;;;;;7.97;4.50;;;;;;;7.00;100.00;95520.38;5027277;28;20119;-90
2023/04/25 04:30:38;;;;;;;7.23;3.90;;;;;;;6.94;100.00;95516.63;5010340;28;20036;-89
2023/04/25 04:33:08;;;;;;;9.17;4.50;;;;;;;6.90;100.00;95523.09;5000892;28;20037;-90
2023/04/25 04:35:35;;;;;;;7.77;4.73;;;;;;;6.97;100.00;95528.53;5024961;28;20129;-89
2023/04/25 04:38:01;;;;;;;7.73;4.73;;;;;;;7.09;100.00;95529.94;5035106;28;20028;-89
2023/04/25 04:40:33;;;;;;;7.77;4.23;;;;;;;7.07;100.00;95526.63;5051597;28;20029;-90
2023/04/25 04:43:10;;;;;;;11.73;5.53;;;;;;;6.97;100.00;95518.06;5032594;28;20028;-90
2023/04/25 04:46:03;;;;;;;12.90;6.00;;;;;;;7.06;100.00;95522.38;5032807;27;20487;-77
2023/04/25 04:48:48;;;;;;;12.43;6.30;;;;;;;7.13;100.00;95525.19;5042131;28;20128;-90
2023/04/25 04:51:13;;;;;;;10.73;6.40;;;;;;;7.07;100.00;95521.41;5043420;28;20040;-90
2023/04/25 04:53:50;;;;;;;11.37;6.50;;;;;;;7.02;100.00;95527.09;5031444;28;20029;-91
2023/04/25 04:56:32;;;;;;;8.63;5.13;;;;;;;7.08;100.00;95528.28;5029441;28;20045;-91
2023/04/25 04:59:14;;;;;;;8.20;5.00;;;;;;;7.08;100.00;95523.06;5037197;28;20059;-91
2023/04/25 05:01:57;;;;;;;8.93;5.17;;;;;;;6.99;100.00;95526.59;5065727;28;20586;-91
2023/04/25 05:04:43;;;;;;;9.70;4.20;;;;;;;7.01;100.00;95529.88;5063565;28;20068;-91
2023/04/25 05:07:23;;;;;;;11.50;5.53;;;;;;;7.11;100.00;95528.00;5059077;28;20025;-91
2023/04/25 05:10:08;;;;;;;11.13;5.90;;;;;;;7.05;100.00;95534.66;5078889;28;20185;-91
2023/04/25 05:12:52;;;;;;;11.43;4.97;;;;;;;7.20;100.00;95527.03;5078434;28;20104;-87
2023/04/25 05:15:37;;;;;;;9.63;4.93;;;;;;;7.33;100.00;95527.44;5074999;28;20059;-88
2023/04/25 05:18:28;;;;;;;8.10;4.93;;;;;;;7.23;100.00;95526.72;5081500;28;20043;-88
2023/04/25 05:21:21;;;;;;;11.47;7.13;;;;;;;7.20;100.00;95526.22;5068435;28;20040;-88
2023/04/25 05:23:59;;;;;;;13.67;7.00;;;;;;;7.22;100.00;95535.56;5075435;28;20038;-89
2023/04/25 05:26:45;;;;;;;10.43;5.30;;;;;;;7.14;100.00;95535.50;5073944;28;20389;-89
2023/04/25 05:29:35;;;;;;;10.20;4.97;;;;;;;7.24;100.00;95540.63;5055458;28;20047;-91
2023/04/25 05:32:19;;;;;;;11.50;5.83;;;;;;;7.24;100.00;95538.00;5062775;28;20033;-90
2023/04/25 05:34:47;;;;;;;15.32;6.10;;;;;;;7.35;100.00;95535.13;5069639;28;20032;-89
2023/04/25 05:37:21;;;;;;;12.20;5.90;;;;;;;7.27;100.00;95535.88;5044085;28;20500;-90
2023/04/25 05:40:09;;;;;;;10.70;5.20;;;;;;;7.38;100.00;95539.22;5075299;28;20025;-89
2023/04/25 05:42:59;;;;;;;6.17;3.90;;;;;;;7.38;100.00;95532.22;5062198;28;20029;-90
2023/04/25 05:46:11;;;;;;;10.50;5.17;;;;;;;7.59;100.00;95530.97;5041020;28;20044;-89
2023/04/25 05:49:39;;;;;;;8.52;4.95;;;;;;;7.74;100.00;95532.81;4941823;29;20800;-89
2023/04/25 06:30:42;;;;;;;7.40;3.47;;;;;;;8.17;100.00;95535.38;5082509;28;20036;-85
2023/04/25 06:33:12;;;;;;;8.63;3.90;;;;;;;8.25;100.00;95530.16;5059853;28;20036;-79
2023/04/25 06:35:39;;;;;;;7.10;3.60;;;;;;;8.33;100.00;95538.03;5067693;28;20043;-81
2023/04/25 06:38:06;;;;;;;6.33;3.63;;;;;;;8.21;100.00;95532.25;5056154;28;20035;-80
2023/04/25 06:40:32;;;;;;;10.33;4.43;;;;;;;8.49;100.00;95537.25;5075358;28;20028;-82
2023/04/25 06:43:00;;;;;;;7.37;3.93;;;;;;;8.53;100.00;95535.13;5069089;28;20210;-81
2023/04/25 06:45:45;;;;;;;5.83;3.10;;;;;;;8.55;100.00;95534.00;5073852;28;20379;-81
2023/04/25 06:48:11;;;;;;;6.13;3.50;;;;;;;8.56;100.00;95530.38;5051655;28;20087;-80
2023/04/25 06:50:37;;;;;;;6.67;3.83;;;;;;;8.40;100.00;95536.41;5059975;28;20492;-81
2023/04/25 06:53:03;;;;;;;6.43;3.97;;;;;;;8.68;100.00;95533.47;5052501;28;20036;-81
2023/04/25 06:55:30;;;;;;;7.87;3.63;;;;;;;8.63;100.00;95531.34;5060853;28;20037;-81
2023/04/25 06:58:08;;;;;;;7.60;3.70;;;;;;;8.60;100.00;95536.09;5048993;28;20119;-82
2023/04/25 07:00:52;;;;;;;8.10;4.17;;;;;;;8.65;100.00;95532.03;5078511;28;20070;-81
2023/04/25 07:03:20;;;;;;;5.83;3.90;;;;;;;8.55;100.00;95533.13;5062325;28;20029;-81
2023/04/25 07:05:46;;;;;;;5.50;3.70;;;;;;;8.57;100.00;95529.38;5062141;28;20103;-82
2023/04/25 07:08:12;;;;;;;7.50;4.00;;;;;;;8.43;100.00;95546.56;5051324;28;20033;-81
2023/04/25 07:10:41;;;;;;;7.27;3.83;;;;;;;8.40;100.00;95543.47;5060432;28;20025;-82
2023/04/25 07:13:06;;;;;;;5.80;3.70;;;;;;;8.42;100.00;95544.94;5071729;28;20090;-81
2023/04/25 07:15:32;;;;;;;9.40;6.10;;;;;;;8.53;100.00;95545.59;5051175;28;20646;-82
2023/04/25 07:18:00;;;;;;;7.07;4.87;;;;;;;8.58;100.00;95538.88;5077199;28;20056;-82
2023/04/25 07:20:27;;;;;;;6.20;3.87;;;;;;;8.56;100.00;95540.03;5051140;28;20020;-82
2023/04/25 07:22:53;;;;;;;7.70;3.80;;;;;;;8.48;100.00;95539.06;5062564;28;20028;-82
2023/04/25 07:25:20;;;;;;;7.57;3.67;;;;;;;8.73;100.00;95539.06;5052415;28;20565;-81
2023/04/25 07:27:46;;;;;;;7.37;4.13;;;;;;;8.51;100.00;95540.50;5062017;28;20036;-81
2023/04/25 07:30:15;;;;;;;5.80;3.60;;;;;;;8.37;100.00;95541.13;5058098;28;20075;-82
2023/04/25 07:32:41;;;;;;;4.67;3.37;;;;;;;8.63;100.00;95531.34;5082636;28;20067;-81
2023/04/25 07:35:07;;;;;;;5.97;3.20;;;;;;;8.76;100.00;95533.47;5062232;28;20035;-81
2023/04/25 07:37:37;;;;;;;5.53;3.27;;;;;;;8.62;100.00;95540.22;5053811;28;20056;-81
2023/04/25 07:40:09;;;;;;;31.83;15.40;;;;;;;8.89;100.00;95538.22;5053486;28;20044;-82
2023/04/25 07:42:38;;;;;;;40.67;22.97;;;;;;;8.79;100.00;95541.03;5056446;28;20397;-81
2023/04/25 07:45:06;;;;;;;74.87;41.13;;;;;;;8.79;100.00;95545.44;5070305;28;20039;-81
2023/04/25 07:47:41;;;;;;;46.83;25.83;;;;;;;8.82;100.00;95539.84;5067360;28;20032;-81
2023/04/25 07:50:07;;;;;;;44.27;24.00;;;;;;;8.91;100.00;95544.91;5072572;28;20036;-82
2023/04/25 07:52:33;;;;;;;26.63;15.40;;;;;;;9.00;100.00;95553.59;5072224;28;20119;-82
2023/04/25 07:55:08;;;;;;;67.85;33.45;;;;;;;8.81;100.00;95548.69;5062303;28;20029;-81
2023/04/25 07:57:47;;;;;;;31.67;16.30;;;;;;;9.14;100.00;95550.31;5061044;28;20029;-81
2023/04/25 08:00:14;;;;;;;78.90;36.43;;;;;;;9.41;100.00;95550.91;5061382;28;20544;-81
2023/04/25 08:02:42;;;;;;;11.63;7.43;;;;;;;9.25;100.00;95554.38;5056773;28;20028;-81
2023/04/25 08:05:14;;;;;;;8.30;5.57;;;;;;;9.67;100.00;95556.72;5049863;28;20954;-82
2023/04/25 08:07:43;;;;;;;7.53;3.70;;;;;;;9.28;100.00;95555.84;5059190;28;20020;-81
2023/04/25 08:10:10;;;;;;;5.70;3.33;;;;;;;9.68;100.00;95562.78;5047590;28;20605;-81
2023/04/25 08:12:35;;;;;;;5.27;3.73;;;;;;;9.33;100.00;95569.28;5064609;28;20056;-81
2023/04/25 08:15:02;;;;;;;3.77;2.27;;;;;;;9.54;100.00;95566.13;5063195;28;20028;-80
2023/04/25 08:17:33;;;;;;;3.70;2.20;;;;;;;9.15;100.00;95578.19;5060556;28;20028;-81
2023/04/25 08:19:58;;;;;;;3.17;2.03;;;;;;;9.22;100.00;95573.06;5052863;28;20029;-81
2023/04/25 08:22:30;;;;;;;4.93;2.63;;;;;;;9.23;100.00;95579.16;5058115;28;20067;-81
2023/04/25 08:25:15;;;;;;;3.40;2.17;;;;;;;9.31;100.00;95587.81;5067807;28;20048;-81
2023/04/25 08:27:43;;;;;;;6.10;3.90;;;;;;;9.23;100.00;95589.66;5071683;28;20071;-81
2023/04/25 08:30:10;;;;;;;10.10;6.43;;;;;;;8.90;100.00;95602.78;5056835;28;20119;-81
2023/04/25 08:32:40;;;;;;;8.60;4.23;;;;;;;8.80;100.00;95605.56;5074777;28;20064;-80
2023/04/25 08:35:26;;;;;;;5.23;2.60;;;;;;;8.52;100.00;95609.47;5041122;28;20040;-80
2023/04/25 08:38:11;;;;;;;4.70;3.00;;;;;;;8.65;100.00;95609.81;5050838;28;20482;-80
2023/04/25 08:40:39;;;;;;;5.27;3.20;;;;;;;8.73;100.00;95618.50;5051659;28;20033;-80
2023/04/25 08:43:14;;;;;;;5.10;2.90;;;;;;;8.62;100.00;95624.06;5055289;28;20024;-81
2023/04/25 08:45:42;;;;;;;4.60;2.67;;;;;;;8.71;100.00;95625.69;5053391;28;20024;-81
2023/04/25 08:48:12;;;;;;;6.10;3.30;;;;;;;8.77;100.00;95624.25;5056448;28;20392;-81
2023/04/25 08:50:55;;;;;;;5.43;3.07;;;;;;;8.64;100.00;95629.97;5051642;28;20041;-80
2023/04/25 08:53:32;;;;;;;5.23;2.40;;;;;;;8.59;100.00;95632.25;5069152;28;20119;-81
2023/04/25 08:56:05;;;;;;;4.13;2.57;;;;;;;8.71;100.00;95632.75;5078424;28;20435;-81
2023/04/25 08:58:35;;;;;;;4.80;2.80;;;;;;;8.83;100.00;95641.13;5081180;28;20032;-80
2023/04/25 09:01:01;;;;;;;5.30;2.47;;;;;;;8.81;100.00;95640.47;5082388;28;20032;-81
2023/04/25 09:03:40;;;;;;;4.10;2.63;;;;;;;9.12;100.00;95644.09;5054473;28;20017;-81
2023/04/25 09:06:05;;;;;;;4.40;2.23;;;;;;;8.79;100.00;95645.06;5058479;28;20569;-81
2023/04/25 09:08:31;;;;;;;3.53;2.03;;;;;;;9.32;100.00;95636.72;5056367;28;20093;-80
2023/04/25 09:11:06;;;;;;;4.17;2.60;;;;;;;9.48;100.00;95640.28;5063196;28;20033;-80
2023/04/25 09:13:32;;;;;;;4.63;2.83;;;;;;;9.58;100.00;95646.97;5056163;28;20039;-80
2023/04/25 09:16:21;;;;;;;7.17;3.03;;;;;;;9.55;100.00;95647.31;5068225;28;20044;-80
2023/04/25 09:19:20;;;;;;;5.83;3.23;;;;;;;10.06;100.00;95645.22;5055350;28;20032;-81
2023/04/25 09:21:49;;;;;;;4.83;2.60;;;;;;;10.07;100.00;95646.03;5060941;28;20406;-80
2023/04/25 09:24:15;;;;;;;5.53;2.77;;;;;;;9.82;100.00;95650.53;5099034;28;20097;-81
2023/04/25 09:26:41;;;;;;;5.93;2.90;;;;;;;10.14;100.00;95653.03;5076563;28;20057;-80
2023/04/25 09:29:10;;;;;;;8.13;3.00;;;;;;;10.45;100.00;95654.91;5073922;28;20070;-82
2023/04/25 09:31:39;;;;;;;4.55;2.80;;;;;;;10.10;100.00;95646.50;5064605;28;20032;-80
2023/04/25 09:34:10;;;;;;;7.03;2.90;;;;;;;10.38;100.00;95649.50;5061601;28;20120;-82
2023/04/25 09:36:42;;;;;;;4.80;2.70;;;;;;;10.62;100.00;95653.81;5053554;28;20123;-81
2023/04/25 09:39:28;;;;;;;4.40;2.80;;;;;;;10.61;100.00;95657.44;5072197;28;20097;-81
2023/04/25 09:42:10;;;;;;;7.33;3.67;;;;;;;10.32;100.00;95658.06;5062805;28;20039;-82
2023/04/25 09:44:44;;;;;;;7.07;3.13;;;;;;;10.38;100.00;95662.66;5049496;28;20036;-81
2023/04/25 09:47:12;;;;;;;6.45;3.63;;;;;;;10.76;100.00;95657.50;5067724;28;20601;-81
2023/04/25 09:49:42;;;;;;;6.00;3.70;;;;;;;10.81;100.00;95659.63;5050763;28;20048;-82
2023/04/25 09:52:37;;;;;;;9.93;6.70;;;;;;;11.14;100.00;95654.13;5065333;28;20169;-81
2023/04/25 09:55:13;;;;;;;7.80;3.57;;;;;;;11.52;100.00;95653.13;5075832;28;20028;-81
2023/04/25 09:57:39;;;;;;;6.97;3.67;;;;;;;11.88;100.00;95652.47;5066346;28;20401;-81
2023/04/25 10:00:10;;;;;;;7.37;4.10;;;;;;;12.52;100.00;95648.41;5056697;28;20028;-82
2023/04/25 10:02:48;;;;;;;7.60;3.93;;;;;;;12.65;100.00;95648.56;5078006;28;20040;-81
2023/04/25 10:05:49;;;;;;;5.97;3.90;;;;;;;12.15;100.00;95650.19;5035328;28;20056;-81
2023/04/25 10:08:17;;;;;;;8.40;4.30;;;;;;;11.60;100.00;95651.41;5039430;28;20136;-81
2023/04/25 10:10:48;;;;;;;10.20;4.70;;;;;;;11.83;100.00;95654.78;5062726;28;20087;-81
2023/04/25 10:13:15;;;;;;;7.07;4.40;;;;;;;11.69;100.00;95647.69;5070281;28;20494;-81
2023/04/25 10:15:41;;;;;;;9.37;4.20;;;;;;;11.92;100.00;95653.75;5076051;28;20036;-81
2023/04/25 10:18:09;;;;;;;7.00;4.80;;;;;;;11.68;100.00;95652.16;5043970;28;20067;-81
2023/04/25 10:20:35;;;;;;;7.10;4.13;;;;;;;11.78;100.00;95657.97;5056416;28;20713;-81
2023/04/25 10:23:15;;;;;;;6.50;4.27;;;;;;;12.08;100.00;95646.66;5070198;28;20025;-81
2023/04/25 10:25:41;;;;;;;6.37;4.47;;;;;;;12.60;100.00;95648.28;5064848;28;20034;-81
2023/04/25 10:28:07;;;;;;;6.73;4.47;;;;;;;12.49;100.00;95644.31;5078300;28;20023;-81
2023/04/25 10:30:32;;;;;;;7.83;4.47;;;;;;;11.79;100.00;95650.88;5053193;28;20044;-82
2023/04/25 10:32:59;;;;;;;6.20;4.20;;;;;;;11.97;100.00;95651.38;5056195;28;20037;-82
2023/04/25 10:35:29;;;;;;;7.63;4.67;;;;;;;12.10;100.00;95660.44;5052622;28;20555;-82
2023/04/25 10:38:05;;;;;;;8.83;5.10;;;;;;;11.42;100.00;95657.00;5055923;28;20036;-82
2023/04/25 10:40:32;;;;;;;7.77;4.77;;;;;;;11.79;100.00;95658.78;5056278;28;20047;-81
2023/04/25 10:43:31;;;;;;;6.80;3.90;;;;;;;12.19;100.00;95652.28;5055835;28;20020;-82
2023/04/25 10:46:00;;;;;;;6.37;3.77;;;;;;;12.36;100.00;95655.53;5057330;28;20471;-81
2023/04/25 10:48:26;;;;;;;8.57;4.73;;;;;;;12.41;100.00;95647.88;5056232;28;20048;-81
2023/04/25 10:51:15;;;;;;;9.50;5.23;;;;;;;12.82;100.00;95649.97;5040005;28;20115;-81
2023/04/25 10:53:41;;;;;;;6.67;3.93;;;;;;;12.38;100.00;95652.72;5049671;28;20170;-82
2023/04/25 10:56:12;;;;;;;8.67;4.43;;;;;;;13.12;100.00;95653.28;5045735;28;20137;-81
2023/04/25 10:58:48;;;;;;;8.67;4.17;;;;;;;12.94;100.00;95651.09;5047783;28;21398;-81
2023/04/25 11:01:20;;;;;;;8.10;4.40;;;;;;;12.66;100.00;95658.91;5055163;28;20048;-82
2023/04/25 11:03:48;;;;;;;6.73;3.83;;;;;;;13.29;100.00;95651.25;5010451;28;20507;-81
2023/04/25 11:06:40;;;;;;;6.10;3.80;;;;;;;13.60;100.00;95648.22;5026499;28;20042;-81
2023/04/25 11:09:13;;;;;;;8.00;4.10;;;;;;;13.95;100.00;95644.78;5011027;28;20434;-80
2023/04/25 11:11:39;;;;;;;7.82;4.20;;;;;;;14.25;100.00;95632.97;5012446;28;20045;-81
2023/04/25 11:14:05;;;;;;;6.73;4.13;;;;;;;13.80;100.00;95636.97;5027176;28;20036;-81
2023/04/25 11:16:32;;;;;;;5.40;3.50;;;;;;;13.49;100.00;95637.38;5071458;28;20029;-81
2023/04/25 11:19:00;;;;;;;6.33;3.53;;;;;;;13.71;100.00;95646.88;5049256;28;20039;-81
2023/04/25 11:21:27;;;;;;;7.03;3.43;;;;;;;13.50;100.00;95644.28;5032317;28;20136;-81
2023/04/25 11:23:54;;;;;;;7.63;3.90;;;;;;;13.49;100.00;95647.94;5026467;28;20127;-80
2023/04/25 11:26:20;;;;;;;7.43;3.70;;;;;;;13.62;100.00;95653.34;5009086;28;21351;-80
2023/04/25 11:28:46;;;;;;;3.80;2.47;;;;;;;14.03;100.00;95652.56;5027191;28;20032;-81
2023/04/25 11:31:12;;;;;;;6.23;3.30;;;;;;;13.93;100.00;95660.03;5035099;28;20041;-82
2023/04/25 11:33:40;;;;;;;7.87;4.60;;;;;;;13.62;100.00;95648.88;5059745;28;20037;-82
2023/04/25 11:36:06;;;;;;;6.90;3.90;;;;;;;12.92;100.00;95661.03;5051630;28;20802;-82
2023/04/25 11:38:32;;;;;;;7.17;3.07;;;;;;;13.37;100.00;95652.91;5064255;28;20039;-81
2023/04/25 11:40:58;;;;;;;5.53;2.60;;;;;;;13.32;100.00;95656.16;5074591;28;20103;-85
2023/04/25 11:43:25;;;;;;;5.80;3.33;;;;;;;13.48;100.00;95664.78;5081468;28;20459;-84
2023/04/25 11:45:52;;;;;;;4.10;2.50;;;;;;;13.15;100.00;95665.31;5079325;28;20067;-84
2023/04/25 11:48:20;;;;;;;6.80;2.93;;;;;;;13.30;100.00;95668.72;5078777;28;20051;-84
2023/04/25 11:50:47;;;;;;;7.50;4.17;;;;;;;13.23;100.00;95678.38;5053651;28;20174;-84
2023/04/25 11:53:13;;;;;;;6.37;3.87;;;;;;;11.39;100.00;95688.97;5069311;28;20548;-84
2023/04/25 11:55:39;;;;;;;6.30;3.93;;;;;;;10.99;100.00;95699.59;5079869;28;20041;-84
2023/04/25 11:58:07;;;;;;;6.90;4.40;;;;;;;10.77;100.00;95701.25;5082309;28;20028;-84
2023/04/25 12:00:32;;;;;;;5.40;3.00;;;;;;;10.57;100.00;95706.13;5069378;28;20067;-84
2023/04/25 12:02:58;;;;;;;5.17;3.30;;;;;;;10.31;100.00;95701.13;5062480;28;20056;-85
2023/04/25 12:05:26;;;;;;;5.37;3.20;;;;;;;9.86;100.00;95707.00;5054405;28;20036;-84
2023/04/25 12:07:53;;;;;;;7.50;3.23;;;;;;;9.41;100.00;95724.09;5065579;28;20020;-84
2023/04/25 12:10:19;;;;;;;6.73;4.20;;;;;;;9.37;100.00;95738.53;5071118;28;20036;-84
2023/04/25 12:12:46;;;;;;;6.00;4.00;;;;;;;9.10;100.00;95748.34;5054395;28;20039;-86
2023/04/25 12:15:19;;;;;;;8.63;4.97;;;;;;;8.81;100.00;95750.59;5054287;28;20055;-86
2023/04/25 12:17:53;;;;;;;7.50;4.53;;;;;;;8.73;100.00;95757.44;5051165;28;20028;-86
2023/04/25 12:20:25;;;;;;;8.87;5.33;;;;;;;8.83;100.00;95754.69;5061249;28;20108;-85
2023/04/25 12:22:52;;;;;;;7.70;5.27;;;;;;;8.70;100.00;95763.00;5062233;28;20055;-84
2023/04/25 12:25:45;;;;;;;9.30;5.33;;;;;;;8.92;100.00;95761.59;5064641;28;20055;-85
2023/04/25 12:28:23;;;;;;;5.88;3.97;;;;;;;8.86;100.00;95766.66;5068087;28;20036;-85